Aktuální počasí v Česku a ve světě - METAR

Seznam meteostanic umístěných nejčasteji na letišti v ČR a ve světě

Vyhledat místa podle abecedy:
A B C D E F G H I J K L M N O P Q R S T U V W X Y Z

Filtrovat:

ID stanice:
a/nebo
Název místa (fulltext):
 
Místo (ID)Naposledy načteno 
Temelín (Temelin) 05.03.2021 11:00 UTC Zobrazit data
Místo: Temelín
Teplota: 1 °C (pocitová: -7.8 °C)
Vítr: 5 m/s z(e) 10°
Počasí: zataženo
Dohlednost: 22 km
Zákl. oblačnosti: 4/8 270 m;6/8 1500 m
Vlhkost: 93%
Tahiti (NTAA) 05.03.2021 07:00 UTC Zobrazit METAR
NTAA 050700Z 09003KT 9999 FEW023 BKN066 28/24 Q1012 NOSIG
Taipei (RCTP) 05.03.2021 10:47 UTC Zobrazit METAR
RCTP 051047Z 22003KT 9999 FEW015 BKN040 BKN060 21/18 Q1015 NOSIG RMK R23 A3000
Taipei (RCSS) 05.03.2021 11:00 UTC Zobrazit METAR
RCSS 051100Z 09006KT 9999 FEW015 BKN042 BKN060 22/19 Q1016 NOSIG RMK A3001
Tallinn (EETN) 05.03.2021 10:50 UTC Zobrazit METAR
EETN 051050Z 33009KT 9999 FEW041 M02/M10 Q1015 R08/81//95 NOSIG
Tampere (EFTP) 05.03.2021 10:50 UTC Zobrazit METAR
EFTP 051050Z 33007KT 290V020 9999 FEW027 M04/M10 Q1015
Tarawa I (NGTA) 05.03.2021 11:00 UTC Zobrazit METAR
NGTA 051100Z 10008KT 9999 FEW019 27/23 Q1010
Targu Mures (LRTM) 05.03.2021 11:00 UTC Zobrazit METAR
LRTM 051100Z 18012KT 9999 FEW028 13/01 Q1012
Tartu (EETU) 05.03.2021 10:50 UTC Zobrazit METAR
EETU 051050Z 31008KT 280V340 9999 BKN027 M03/M10 Q1014
Tashkent (UTTT) 05.03.2021 11:00 UTC Zobrazit METAR
UTTT 051100Z 23006KT 190V320 CAVOK 12/00 Q1024 R26R/CLRD70 NOSIG
Tbilisi (UGGG) Zatím nenačteno  
Tegucigalpa (MHTG) 05.03.2021 10:00 UTC Zobrazit METAR
MHTG 051000Z 00000KT 9999 SCT028 17/15 Q1018 A3006 NOSIG
Tehran (OIII) 05.03.2021 11:00 UTC Zobrazit METAR
OIII 051100Z 08008KT 9999 SCT035 15/01 Q1010 A2984 NOSIG
Tel Aviv (LLBG) 05.03.2021 10:50 UTC Zobrazit METAR
LLBG 051050Z 29010KT 9999 FEW035 18/09 Q1023 NOSIG
Tenerife (GCTS) 05.03.2021 11:00 UTC Zobrazit METAR
GCTS 051100Z 20005KT 150V250 9999 FEW025 21/14 Q1020 NOSIG
Thessaloniki (LGTS) 05.03.2021 10:50 UTC Zobrazit METAR
LGTS 051050Z 30005KT 9999 FEW020 13/09 Q1017 NOSIG
Thule (BGTL) 05.03.2021 10:56 UTC Zobrazit METAR
BGTL 051056Z AUTO 09011KT 9999 CLR M33/M37 A3041 RMK AO2 SLP293 T13321372 TSNO $
Timisoara (LRTR) 05.03.2021 11:00 UTC Zobrazit METAR
LRTR 051100Z 26016KT CAVOK 13/01 Q1014
Tirana (LATI) 05.03.2021 10:50 UTC Zobrazit METAR
LATI 051050Z VRB05KT 9999 SCT045 16/04 Q1020 NOSIG
Tokyo (RJTT) 05.03.2021 11:00 UTC Zobrazit METAR
RJTT 051100Z 36007KT 9999 -RA FEW010 BKN025 12/11 Q1021 NOSIG
Torp (ENTO) 05.03.2021 10:50 UTC Zobrazit METAR
ENTO 051050Z 32006KT CAVOK 04/M10 Q1025 NOSIG
Toulouse (LFBO) 05.03.2021 11:00 UTC Zobrazit METAR
LFBO 051100Z AUTO 34004KT 290V010 8000 NSC 14/10 Q1019 NOSIG
Tripoli (HLLT) 13.07.2014 03:50 UTC Zobrazit METAR
HLLT 130350Z 11009KT CAVOK 24/15 Q1015
Trondheim (ENVA) 05.03.2021 10:50 UTC Zobrazit METAR
ENVA 051050Z 24010KT 9999 BKN027 01/M02 Q1021 NOSIG RMK WIND 670FT 26012KT
Tunis (DTTA) 05.03.2021 11:00 UTC Zobrazit METAR
DTTA 051100Z 19006KT 150V210 8000 SCT026 17/11 Q1017
Turku (EFTU) 05.03.2021 10:50 UTC Zobrazit METAR
EFTU 051050Z AUTO 01006KT 310V070 9999 FEW035 M02/M10 Q1016
Reklama

Reklama


Počasí na Váš email

Emaily jsou bez reklamy a bez spamu



Odhlásit newsletter



Další české internetové stránky (nejen) o počasí najdete v katalogu TOPlist - weby o počasí nebo vyhledejte na internetu, co jste tu na 🌞 Slunečnu ⛅ zatím nenašli:
⭐ Přidat Slunečno.cz do oblíbených | 🏠 Nastavit Slunečno.cz jako HOMEPAGE

⬆️ Posunout stránku nahoru ⬆️
Reklama